Time;durP1;ratioP1;P1;durP2;ratioP2;P2;SDS_P1;SDS_P2;PMS_P1;PMS_P2;Temp;Humidity;BMP_temperature;BMP_pressure;BME280_temperature;BME280_humidity;BME280_pressure;Samples;Min_cycle;Max_cycle;Signal;HPM_P1;HPM_P2
2022/01/09 00:00:05;;;;;;;1.00;0.93;;;0.70;99.90;;;;;;2114388;28;20193;-69
2022/01/09 00:01:06;;;;;;;1.00;0.90;;;0.60;99.90;;;;;;2114940;28;20175;-69
2022/01/09 00:02:06;;;;;;;0.70;0.70;;;0.70;99.90;;;;;;2114950;28;20564;-69
2022/01/09 00:03:07;;;;;;;0.60;0.60;;;0.70;99.90;;;;;;2115037;28;20179;-69
2022/01/09 00:04:08;;;;;;;0.80;0.80;;;0.70;99.90;;;;;;2114969;28;20186;-69
2022/01/09 00:05:10;;;;;;;0.90;0.83;;;0.70;99.90;;;;;;2114096;28;20171;-69
2022/01/09 00:06:11;;;;;;;1.02;0.70;;;0.70;99.90;;;;;;2105989;28;20737;-69
2022/01/09 00:07:11;;;;;;;0.80;0.77;;;0.70;99.90;;;;;;2114275;28;20172;-69
2022/01/09 00:08:12;;;;;;;0.87;0.80;;;0.70;99.90;;;;;;2114877;28;20170;-69
2022/01/09 00:09:13;;;;;;;0.63;0.60;;;0.80;99.90;;;;;;2114146;28;20207;-69
2022/01/09 00:10:15;;;;;;;0.77;0.73;;;0.80;99.90;;;;;;2114267;28;20171;-70
2022/01/09 00:11:18;;;;;;;0.45;0.45;;;0.80;99.90;;;;;;2114221;28;20665;-69
2022/01/09 00:12:18;;;;;;;0.50;0.50;;;0.80;99.90;;;;;;2114137;28;20261;-69
2022/01/09 00:13:19;;;;;;;0.40;0.40;;;0.80;99.90;;;;;;2114273;28;20175;-69
2022/01/09 00:14:20;;;;;;;0.60;0.60;;;0.80;99.90;;;;;;2114818;28;20565;-69
2022/01/09 00:15:21;;;;;;;0.50;0.50;;;0.80;99.90;;;;;;2114607;28;20694;-69
2022/01/09 00:16:23;;;;;;;0.70;0.60;;;0.80;99.90;;;;;;2114233;28;20665;-69
2022/01/09 00:17:23;;;;;;;0.50;0.50;;;0.80;99.90;;;;;;2105682;28;20182;-69
2022/01/09 00:18:24;;;;;;;0.47;0.40;;;0.80;99.90;;;;;;2114262;28;20170;-69
2022/01/09 00:19:25;;;;;;;0.50;0.50;;;0.80;99.90;;;;;;2114742;28;20190;-70
2022/01/09 00:20:26;;;;;;;0.30;0.30;;;0.80;99.90;;;;;;2114290;28;20191;-69
2022/01/09 00:21:27;;;;;;;0.40;0.40;;;0.90;99.90;;;;;;2114131;28;20272;-69
2022/01/09 00:22:39;;;;;;;0.40;0.40;;;0.90;99.90;;;;;;2114723;28;20228;-69
2022/01/09 00:23:42;;;;;;;0.50;0.50;;;0.90;99.90;;;;;;2105646;28;20189;-70
2022/01/09 00:24:42;;;;;;;0.32;0.30;;;0.90;99.90;;;;;;2107515;28;20188;-69
2022/01/09 00:25:43;;;;;;;0.33;0.33;;;1.00;99.90;;;;;;2122570;27;20189;-70
2022/01/09 00:26:43;;;;;;;0.40;0.40;;;0.90;99.90;;;;;;2114673;28;20174;-69
2022/01/09 00:27:45;;;;;;;0.40;0.40;;;0.90;99.90;;;;;;2114680;28;20597;-70
2022/01/09 00:28:45;;;;;;;0.40;0.40;;;0.90;99.90;;;;;;2114166;28;20183;-69
2022/01/09 00:29:46;;;;;;;0.30;0.30;;;0.90;99.90;;;;;;2105508;28;20284;-70
2022/01/09 00:30:47;;;;;;;0.50;0.50;;;0.90;99.90;;;;;;2114110;28;20601;-69
2022/01/09 00:31:47;;;;;;;0.30;0.30;;;0.90;99.90;;;;;;2114543;28;20526;-69
2022/01/09 00:32:48;;;;;;;0.30;0.30;;;0.90;99.90;;;;;;2112947;28;20196;-69
2022/01/09 00:33:49;;;;;;;0.30;0.30;;;0.90;99.90;;;;;;2105920;28;20188;-69
2022/01/09 00:34:50;;;;;;;0.20;0.20;;;0.90;99.90;;;;;;2105516;28;20265;-70
2022/01/09 00:35:50;;;;;;;0.30;0.30;;;0.90;99.90;;;;;;2105650;28;20847;-70
2022/01/09 00:36:51;;;;;;;0.27;0.27;;;0.90;99.90;;;;;;2097181;28;20524;-70
2022/01/09 00:37:52;;;;;;;0.47;0.33;;;1.00;99.90;;;;;;2105556;28;20203;-69
2022/01/09 00:38:52;;;;;;;0.30;0.30;;;1.10;99.90;;;;;;2106280;28;20203;-69
2022/01/09 00:39:53;;;;;;;0.30;0.30;;;1.20;99.90;;;;;;2106223;28;20182;-70
2022/01/09 00:40:54;;;;;;;0.30;0.30;;;1.20;99.90;;;;;;2105564;28;20551;-69
2022/01/09 00:41:55;;;;;;;0.47;0.47;;;1.10;99.90;;;;;;2105496;28;20198;-69
2022/01/09 00:42:55;;;;;;;0.30;0.30;;;1.10;99.90;;;;;;2106238;28;20184;-70
2022/01/09 00:43:56;;;;;;;0.43;0.40;;;1.10;99.90;;;;;;2105590;28;20186;-69
2022/01/09 00:44:57;;;;;;;0.20;0.20;;;1.10;99.90;;;;;;2105610;28;20198;-69
2022/01/09 00:45:58;;;;;;;0.20;0.20;;;1.10;99.90;;;;;;2106185;28;20184;-70
2022/01/09 00:47:00;;;;;;;0.20;0.20;;;1.20;99.90;;;;;;2106219;28;20175;-69
2022/01/09 00:48:01;;;;;;;0.10;0.10;;;1.30;99.90;;;;;;2106131;28;20187;-70
2022/01/09 00:49:03;;;;;;;0.50;0.20;;;1.40;99.90;;;;;;2105567;28;20205;-70
2022/01/09 00:50:05;;;;;;;0.20;0.20;;;1.50;99.90;;;;;;2105641;28;20690;-70
2022/01/09 00:51:06;;;;;;;0.68;0.60;;;1.60;99.90;;;;;;2105624;28;20172;-70
2022/01/09 00:52:06;;;;;;;0.50;0.30;;;1.50;99.90;;;;;;2105481;28;20197;-70
2022/01/09 00:53:07;;;;;;;0.30;0.30;;;1.60;99.90;;;;;;2106121;28;20520;-70
2022/01/09 00:54:08;;;;;;;0.40;0.40;;;1.70;99.90;;;;;;2106057;28;20183;-70
2022/01/09 00:55:09;;;;;;;0.83;0.50;;;1.80;99.90;;;;;;2106013;28;20178;-70
2022/01/09 00:56:10;;;;;;;0.45;0.40;;;1.80;99.90;;;;;;2106103;28;20181;-71
2022/01/09 00:57:11;;;;;;;0.43;0.37;;;1.80;99.90;;;;;;2106205;28;20175;-70
2022/01/09 00:58:11;;;;;;;0.30;0.30;;;1.80;99.90;;;;;;2105816;28;20176;-70
2022/01/09 00:59:12;;;;;;;0.20;0.20;;;2.00;99.90;;;;;;2105788;28;20202;-70
2022/01/09 01:00:14;;;;;;;0.20;0.20;;;2.30;99.90;;;;;;2106066;28;20183;-70
2022/01/09 01:01:14;;;;;;;0.43;0.17;;;2.50;99.90;;;;;;2106274;28;20183;-70
2022/01/09 01:02:15;;;;;;;0.20;0.10;;;2.40;99.90;;;;;;2106051;28;20702;-70
2022/01/09 01:03:16;;;;;;;0.23;0.17;;;2.50;99.90;;;;;;2105419;28;20174;-70
2022/01/09 01:04:16;;;;;;;0.20;0.20;;;2.50;99.90;;;;;;2105646;28;20173;-71
2022/01/09 01:05:18;;;;;;;0.20;0.20;;;2.40;99.90;;;;;;2105887;28;20645;-70
2022/01/09 01:06:19;;;;;;;0.10;0.10;;;2.50;99.90;;;;;;2106164;28;20196;-71
2022/01/09 01:07:20;;;;;;;1.90;0.20;;;2.50;99.90;;;;;;2105974;28;20196;-71
2022/01/09 01:08:21;;;;;;;0.20;0.20;;;2.50;99.90;;;;;;2106105;28;20186;-70
2022/01/09 01:09:23;;;;;;;0.63;0.30;;;2.50;99.90;;;;;;2105875;28;20205;-70
2022/01/09 01:10:24;;;;;;;0.20;0.20;;;2.50;99.90;;;;;;2106053;28;20180;-70
2022/01/09 01:11:25;;;;;;;0.20;0.20;;;2.60;99.90;;;;;;2105357;28;20189;-70
2022/01/09 01:12:30;;;;;;;0.30;0.23;;;2.70;99.90;;;;;;2105385;28;20199;-70
2022/01/09 01:13:31;;;;;;;0.20;0.20;;;2.60;99.90;;;;;;2105427;28;20174;-70
2022/01/09 01:14:32;;;;;;;0.33;0.33;;;2.60;99.90;;;;;;2096911;28;20198;-70
2022/01/09 01:15:33;;;;;;;0.22;0.22;;;2.60;99.90;;;;;;2105419;28;20177;-69
2022/01/09 01:16:34;;;;;;;0.20;0.20;;;2.60;99.90;;;;;;2106124;28;20656;-70
2022/01/09 01:17:36;;;;;;;0.40;0.20;;;2.70;99.90;;;;;;2105839;28;20702;-70
2022/01/09 01:18:36;;;;;;;0.20;0.13;;;2.70;99.90;;;;;;2106017;28;20173;-70
2022/01/09 01:19:37;;;;;;;0.20;0.20;;;2.70;99.90;;;;;;2106009;28;20529;-69
2022/01/09 01:20:38;;;;;;;0.40;0.20;;;2.80;99.90;;;;;;2107197;28;20182;-70
2022/01/09 01:21:38;;;;;;;0.30;0.30;;;2.90;99.90;;;;;;2107626;28;20174;-70
2022/01/09 01:22:41;;;;;;;0.30;0.30;;;2.90;99.90;;;;;;2107162;28;20182;-70
2022/01/09 01:23:42;;;;;;;0.20;0.20;;;2.90;99.90;;;;;;2107067;28;20228;-70
2022/01/09 01:24:43;;;;;;;0.30;0.20;;;2.90;99.90;;;;;;2107505;28;20212;-70
2022/01/09 01:25:50;;;;;;;1.02;0.30;;;2.80;99.90;;;;;;2107703;28;20571;-70
2022/01/09 01:26:51;;;;;;;0.47;0.30;;;2.90;99.90;;;;;;2107073;28;20263;-70
2022/01/09 01:27:52;;;;;;;0.30;0.30;;;2.80;99.90;;;;;;2107136;28;20662;-70
2022/01/09 01:28:52;;;;;;;0.30;0.30;;;2.80;99.90;;;;;;2107726;28;20182;-70
2022/01/09 01:29:54;;;;;;;0.23;0.23;;;2.80;99.90;;;;;;2107617;28;20549;-70
2022/01/09 01:30:55;;;;;;;0.30;0.20;;;2.70;99.90;;;;;;2107103;28;20578;-70
2022/01/09 01:31:55;;;;;;;1.03;0.40;;;2.70;99.90;;;;;;2106925;28;20190;-70
2022/01/09 01:32:56;;;;;;;0.23;0.23;;;2.70;99.90;;;;;;2107720;28;20181;-70
2022/01/09 01:33:57;;;;;;;0.40;0.40;;;2.70;99.90;;;;;;2107674;28;20183;-70
2022/01/09 01:34:57;;;;;;;0.30;0.20;;;2.70;99.90;;;;;;2107555;28;20189;-69
2022/01/09 01:35:58;;;;;;;0.47;0.30;;;2.60;99.90;;;;;;2107596;28;20182;-69
2022/01/09 01:36:59;;;;;;;0.20;0.20;;;2.60;99.90;;;;;;2107631;28;20185;-69
2022/01/09 01:38:00;;;;;;;0.20;0.20;;;2.70;99.90;;;;;;2107504;28;20592;-70
2022/01/09 01:39:01;;;;;;;0.30;0.30;;;2.70;99.90;;;;;;2107606;28;20230;-69
2022/01/09 01:40:02;;;;;;;0.60;0.30;;;2.70;99.90;;;;;;2107577;28;20169;-69
2022/01/09 01:41:02;;;;;;;1.27;0.40;;;2.70;99.90;;;;;;2107645;28;20169;-69
2022/01/09 01:42:03;;;;;;;0.30;0.30;;;2.70;99.90;;;;;;2107508;28;20259;-68
2022/01/09 01:43:04;;;;;;;0.20;0.20;;;2.70;99.90;;;;;;2107857;28;20187;-69
2022/01/09 01:44:10;;;;;;;0.23;0.23;;;2.60;99.90;;;;;;2115906;28;20241;-69
2022/01/09 01:45:11;;;;;;;0.30;0.20;;;2.60;99.90;;;;;;2115373;28;20176;-69
2022/01/09 01:46:12;;;;;;;0.40;0.38;;;2.60;99.90;;;;;;2106990;28;20176;-69
2022/01/09 01:47:15;;;;;;;0.30;0.30;;;2.60;99.90;;;;;;2098603;28;20533;-69
2022/01/09 01:48:16;;;;;;;0.30;0.30;;;2.70;99.90;;;;;;2107271;28;20230;-69
2022/01/09 01:49:16;;;;;;;0.50;0.22;;;2.70;99.90;;;;;;2115904;28;20203;-68
2022/01/09 01:50:19;;;;;;;0.10;0.10;;;2.70;99.90;;;;;;2116035;28;20193;-69
2022/01/09 01:51:20;;;;;;;0.30;0.30;;;2.70;99.90;;;;;;2115384;28;20258;-68
2022/01/09 01:52:30;;;;;;;0.20;0.20;;;2.70;99.90;;;;;;2115254;28;20200;-68
2022/01/09 01:53:31;;;;;;;0.30;0.30;;;2.70;99.90;;;;;;2115398;28;20282;-69
2022/01/09 01:54:32;;;;;;;1.23;0.43;;;2.70;99.90;;;;;;2107594;28;20600;-68
2022/01/09 01:55:36;;;;;;;0.30;0.30;;;2.70;99.90;;;;;;2115406;28;20173;-68
2022/01/09 01:56:38;;;;;;;0.20;0.20;;;2.60;99.90;;;;;;2115206;28;20208;-68
2022/01/09 01:57:41;;;;;;;0.25;0.20;;;2.70;99.90;;;;;;2115249;28;20180;-68
2022/01/09 01:58:41;;;;;;;0.40;0.40;;;2.80;99.90;;;;;;2115242;28;20647;-68
2022/01/09 01:59:42;;;;;;;0.27;0.20;;;2.80;99.90;;;;;;2115316;28;20184;-68
2022/01/09 02:00:43;;;;;;;0.57;0.20;;;2.80;99.90;;;;;;2115143;28;20603;-68
2022/01/09 02:01:43;;;;;;;0.47;0.13;;;2.70;99.90;;;;;;2115272;28;20184;-67
2022/01/09 02:02:44;;;;;;;0.30;0.30;;;2.80;99.90;;;;;;2115802;28;20184;-68
2022/01/09 02:03:45;;;;;;;0.23;0.23;;;2.80;99.90;;;;;;2115859;28;20783;-67
2022/01/09 02:04:46;;;;;;;0.20;0.20;;;2.80;99.90;;;;;;2115650;28;20601;-67
2022/01/09 02:05:48;;;;;;;0.83;0.30;;;2.90;99.90;;;;;;2115812;28;20184;-67
2022/01/09 02:06:48;;;;;;;0.45;0.30;;;2.90;99.90;;;;;;2115711;28;20180;-67
2022/01/09 02:07:53;;;;;;;0.43;0.23;;;2.80;99.90;;;;;;2115138;28;20187;-67
2022/01/09 02:08:53;;;;;;;0.28;0.28;;;2.80;99.90;;;;;;2115243;28;20183;-67
2022/01/09 02:09:54;;;;;;;0.30;0.30;;;2.80;99.90;;;;;;2115689;28;20261;-67
2022/01/09 02:10:55;;;;;;;0.20;0.20;;;2.70;99.90;;;;;;2115815;28;20180;-67
2022/01/09 02:11:55;;;;;;;0.60;0.17;;;2.70;99.90;;;;;;2115688;28;20185;-67
2022/01/09 02:12:57;;;;;;;0.20;0.20;;;2.70;99.90;;;;;;2115707;28;20237;-67
2022/01/09 02:13:58;;;;;;;0.30;0.13;;;2.60;99.90;;;;;;2106581;28;20201;-67
2022/01/09 02:14:59;;;;;;;0.10;0.10;;;2.60;99.90;;;;;;2098347;28;20742;-67
2022/01/09 02:16:01;;;;;;;0.20;0.20;;;2.60;99.90;;;;;;2115135;28;20668;-67
2022/01/09 02:17:03;;;;;;;0.25;0.25;;;2.60;99.90;;;;;;2115156;28;20669;-67
2022/01/09 02:18:07;;;;;;;0.20;0.20;;;2.60;99.90;;;;;;2106988;28;20186;-67
2022/01/09 02:19:13;;;;;;;0.20;0.20;;;2.60;99.90;;;;;;2107154;28;20174;-68
2022/01/09 02:20:15;;;;;;;0.20;0.20;;;2.50;99.90;;;;;;2115184;28;20177;-68
2022/01/09 02:21:16;;;;;;;0.10;0.10;;;2.50;99.90;;;;;;2115819;28;20260;-67
2022/01/09 02:22:16;;;;;;;0.10;0.10;;;2.50;99.90;;;;;;2115689;28;20213;-67
2022/01/09 02:23:18;;;;;;;0.30;0.30;;;2.60;99.90;;;;;;2115117;28;20174;-67
2022/01/09 02:24:22;;;;;;;0.20;0.20;;;2.50;99.90;;;;;;2106737;28;20173;-68
2022/01/09 02:25:24;;;;;;;0.10;0.10;;;2.50;99.90;;;;;;2115118;28;20178;-68
2022/01/09 02:26:25;;;;;;;0.20;0.20;;;2.50;99.90;;;;;;2115641;28;20714;-68
2022/01/09 02:27:25;;;;;;;0.40;0.30;;;2.50;99.90;;;;;;2114985;28;20235;-68
2022/01/09 02:28:26;;;;;;;0.10;0.10;;;2.50;99.90;;;;;;2113639;28;20183;-68
2022/01/09 02:29:27;;;;;;;0.30;0.30;;;2.50;99.90;;;;;;2109281;28;20201;-68
2022/01/09 02:30:32;;;;;;;0.20;0.20;;;2.50;99.90;;;;;;2107226;28;20178;-67
2022/01/09 02:31:39;;;;;;;0.22;0.20;;;2.60;99.90;;;;;;2106622;28;20177;-68
2022/01/09 02:32:40;;;;;;;0.15;0.15;;;2.50;99.90;;;;;;2106104;28;20607;-67
2022/01/09 02:33:41;;;;;;;0.57;0.30;;;2.60;99.90;;;;;;2106609;28;20268;-68
2022/01/09 02:34:45;;;;;;;0.32;0.30;;;2.60;99.90;;;;;;2106412;28;20173;-68
2022/01/09 02:35:51;;;;;;;0.43;0.30;;;2.50;99.90;;;;;;2106553;28;20674;-68
2022/01/09 02:36:51;;;;;;;0.90;0.25;;;2.50;99.90;;;;;;2106535;28;20601;-68
2022/01/09 02:37:52;;;;;;;0.20;0.20;;;2.50;99.90;;;;;;2106584;28;20188;-68
2022/01/09 02:38:53;;;;;;;0.10;0.10;;;2.50;99.90;;;;;;2107148;28;20188;-68
2022/01/09 02:39:53;;;;;;;0.40;0.40;;;2.40;99.90;;;;;;2107197;28;20246;-67
2022/01/09 02:40:55;;;;;;;0.20;0.20;;;2.40;99.90;;;;;;2107101;28;20203;-68
2022/01/09 02:41:55;;;;;;;0.17;0.17;;;2.40;99.90;;;;;;2107078;28;20196;-68
2022/01/09 02:42:56;;;;;;;0.20;0.20;;;2.40;99.90;;;;;;2107034;28;20222;-68
2022/01/09 02:43:57;;;;;;;0.70;0.20;;;2.40;99.90;;;;;;2107033;28;20654;-68
2022/01/09 02:44:58;;;;;;;0.57;0.27;;;2.40;99.90;;;;;;2106188;28;20185;-68
2022/01/09 02:46:12;;;;;;;0.20;0.20;;;2.30;99.90;;;;;;2106555;28;20225;-68
2022/01/09 02:47:13;;;;;;;0.10;0.10;;;2.40;99.90;;;;;;2107054;28;20199;-68
2022/01/09 02:48:13;;;;;;;1.50;0.47;;;2.40;99.90;;;;;;2107128;28;20173;-68
2022/01/09 02:49:14;;;;;;;0.67;0.20;;;2.40;99.90;;;;;;2106958;28;20306;-68
2022/01/09 02:51:22;;;;;;;0.10;0.10;;;2.30;99.90;;;;;;2106445;28;20184;-69
2022/01/09 02:52:32;;;;;;;0.10;0.10;;;2.30;99.90;;;;;;2106386;28;20258;-69
2022/01/09 02:53:35;;;;;;;0.20;0.20;;;2.30;99.90;;;;;;2107022;28;20176;-69
2022/01/09 02:55:55;;;;;;;0.17;0.17;;;2.20;99.90;;;;;;2106584;28;20174;-69
2022/01/09 02:56:56;;;;;;;0.20;0.20;;;2.20;99.90;;;;;;2106870;28;20593;-69
2022/01/09 02:57:59;;;;;;;0.20;0.20;;;2.20;99.90;;;;;;2106458;28;20173;-69
2022/01/09 02:59:00;;;;;;;0.20;0.20;;;2.10;99.90;;;;;;2106364;28;20666;-69
2022/01/09 03:00:00;;;;;;;0.10;0.10;;;2.10;99.90;;;;;;2106375;28;20197;-69
2022/01/09 03:01:03;;;;;;;0.17;0.17;;;2.10;99.90;;;;;;2106319;28;20558;-69
2022/01/09 03:02:04;;;;;;;0.30;0.17;;;2.30;99.90;;;;;;2106871;28;20208;-69
2022/01/09 03:03:05;;;;;;;0.10;0.10;;;2.20;99.90;;;;;;2106896;28;20544;-69
2022/01/09 03:04:05;;;;;;;0.40;0.20;;;2.20;99.90;;;;;;2106859;28;20228;-69
2022/01/09 03:05:08;;;;;;;0.10;0.10;;;2.10;99.90;;;;;;2106829;28;20179;-69
2022/01/09 03:06:09;;;;;;;0.10;0.10;;;2.10;99.90;;;;;;2105868;28;20224;-69
2022/01/09 03:07:10;;;;;;;0.10;0.10;;;2.20;99.90;;;;;;2106142;28;20659;-69
2022/01/09 03:08:12;;;;;;;0.97;0.30;;;2.20;99.90;;;;;;2106870;28;20208;-69
2022/01/09 03:09:12;;;;;;;0.20;0.20;;;2.20;99.90;;;;;;2106906;28;20172;-69
2022/01/09 03:10:17;;;;;;;0.10;0.10;;;2.30;99.90;;;;;;2106302;28;20719;-69
2022/01/09 03:11:18;;;;;;;0.20;0.20;;;2.30;99.90;;;;;;2106359;28;20571;-70
2022/01/09 03:12:18;;;;;;;0.30;0.30;;;2.20;99.90;;;;;;2106707;28;20198;-69
2022/01/09 03:13:19;;;;;;;0.20;0.20;;;2.20;99.90;;;;;;2106904;28;20186;-69
2022/01/09 03:14:20;;;;;;;0.20;0.20;;;2.20;99.90;;;;;;2106930;28;20187;-70
2022/01/09 03:15:21;;;;;;;0.20;0.20;;;2.10;99.90;;;;;;2106873;28;20179;-69
2022/01/09 03:16:21;;;;;;;1.00;0.33;;;2.20;99.90;;;;;;2106211;28;20191;-69
2022/01/09 03:17:22;;;;;;;0.30;0.30;;;2.20;99.90;;;;;;2106091;28;20652;-69
2022/01/09 03:18:22;;;;;;;0.10;0.10;;;2.20;99.90;;;;;;2106957;28;20701;-69
2022/01/09 03:19:23;;;;;;;0.20;0.20;;;2.20;99.90;;;;;;2106939;28;20193;-69
2022/01/09 03:20:26;;;;;;;0.17;0.17;;;2.20;99.90;;;;;;2106811;28;20184;-69
2022/01/09 03:21:27;;;;;;;0.20;0.20;;;2.20;99.90;;;;;;2106279;28;20181;-70
2022/01/09 03:22:28;;;;;;;0.20;0.20;;;2.20;99.90;;;;;;2105975;28;20704;-70
2022/01/09 03:23:28;;;;;;;0.20;0.20;;;2.10;99.90;;;;;;2106814;28;20181;-70
2022/01/09 03:24:29;;;;;;;0.20;0.20;;;2.10;99.90;;;;;;2106622;28;20637;-69
2022/01/09 03:25:30;;;;;;;0.83;0.30;;;2.00;99.90;;;;;;2106947;28;20259;-70
2022/01/09 03:26:30;;;;;;;0.33;0.30;;;2.00;99.90;;;;;;2106380;28;20179;-69
2022/01/09 03:27:31;;;;;;;0.20;0.20;;;2.00;99.90;;;;;;2106322;28;20177;-70
2022/01/09 03:28:32;;;;;;;0.20;0.20;;;2.00;99.90;;;;;;2106174;28;20644;-70
2022/01/09 03:29:33;;;;;;;0.17;0.17;;;2.00;99.90;;;;;;2106453;28;20258;-72
2022/01/09 03:30:33;;;;;;;0.20;0.20;;;1.90;99.90;;;;;;2106959;28;20789;-70
2022/01/09 03:31:34;;;;;;;0.10;0.10;;;1.90;99.90;;;;;;2106985;28;20665;-70
2022/01/09 03:32:37;;;;;;;0.10;0.10;;;1.90;99.90;;;;;;2106142;28;20207;-70
2022/01/09 03:33:38;;;;;;;0.10;0.10;;;1.90;99.90;;;;;;2106311;28;20184;-70
2022/01/09 03:34:38;;;;;;;0.10;0.10;;;1.80;99.90;;;;;;2106173;28;20183;-70
2022/01/09 03:35:39;;;;;;;0.10;0.10;;;1.80;99.90;;;;;;2106218;28;20174;-70
2022/01/09 03:36:40;;;;;;;0.10;0.10;;;1.90;99.90;;;;;;2106114;28;20207;-70
2022/01/09 03:37:43;;;;;;;0.13;0.13;;;1.80;99.90;;;;;;2106288;28;20186;-70
2022/01/09 03:38:44;;;;;;;0.10;0.10;;;1.80;99.90;;;;;;2106769;28;20174;-70
2022/01/09 03:39:45;;;;;;;0.20;0.20;;;1.80;99.90;;;;;;2106961;28;20196;-70
2022/01/09 03:40:46;;;;;;;0.10;0.10;;;1.70;99.90;;;;;;2106352;28;20188;-70
2022/01/09 03:41:46;;;;;;;0.10;0.10;;;1.70;99.90;;;;;;2106244;28;20210;-70
2022/01/09 03:42:51;;;;;;;2.63;0.20;;;1.60;99.90;;;;;;2106885;28;20208;-70
2022/01/09 03:43:52;;;;;;;0.10;0.10;;;1.60;99.90;;;;;;2108598;28;20266;-70
2022/01/09 03:44:52;;;;;;;0.00;0.00;;;1.50;99.90;;;;;;2114498;28;20182;-70
2022/01/09 03:45:53;;;;;;;0.10;0.10;;;1.50;99.90;;;;;;2115231;28;20176;-70
2022/01/09 03:46:54;;;;;;;0.13;0.13;;;1.40;99.90;;;;;;2115195;28;20189;-69
2022/01/09 03:47:56;;;;;;;0.20;0.20;;;1.40;99.90;;;;;;2114637;28;20620;-70
2022/01/09 03:48:56;;;;;;;0.82;0.20;;;1.30;99.90;;;;;;2106403;28;20586;-69
2022/01/09 03:49:57;;;;;;;0.10;0.10;;;1.30;99.90;;;;;;2114542;28;20215;-69
2022/01/09 03:50:58;;;;;;;0.43;0.20;;;1.20;99.90;;;;;;2115395;28;20714;-69
2022/01/09 03:52:00;;;;;;;0.03;0.03;;;1.20;99.90;;;;;;2114557;28;20277;-69
2022/01/09 03:53:01;;;;;;;0.32;0.13;;;1.10;99.90;;;;;;2114800;28;20179;-70
2022/01/09 03:54:01;;;;;;;0.10;0.10;;;1.10;99.90;;;;;;2115175;28;20182;-69
2022/01/09 03:55:03;;;;;;;0.20;0.20;;;1.20;99.90;;;;;;2115308;28;20231;-69
2022/01/09 03:56:04;;;;;;;0.45;0.17;;;1.10;99.90;;;;;;2115239;28;20203;-69
2022/01/09 03:57:05;;;;;;;0.10;0.10;;;1.10;99.90;;;;;;2114444;28;20208;-69
2022/01/09 03:58:06;;;;;;;3.40;0.20;;;1.10;99.90;;;;;;2114555;28;20214;-69
2022/01/09 03:59:07;;;;;;;0.10;0.10;;;1.10;99.90;;;;;;2115293;28;20186;-69
2022/01/09 04:00:13;;;;;;;0.43;0.10;;;1.10;99.90;;;;;;2115036;28;20166;-69
2022/01/09 04:01:14;;;;;;;2.17;0.20;;;1.00;99.90;;;;;;2115218;28;20155;-69
2022/01/09 04:02:14;;;;;;;0.10;0.10;;;1.00;99.90;;;;;;2115005;28;20266;-69
2022/01/09 04:03:15;;;;;;;0.17;0.17;;;1.00;99.90;;;;;;2115130;28;20170;-71
2022/01/09 04:04:16;;;;;;;0.10;0.10;;;1.00;99.90;;;;;;2115206;28;20170;-68
2022/01/09 04:05:18;;;;;;;0.40;0.20;;;1.00;99.90;;;;;;2114732;28;20228;-70
2022/01/09 04:06:19;;;;;;;0.10;0.10;;;1.00;99.90;;;;;;2114179;28;20194;-68
2022/01/09 04:07:19;;;;;;;0.20;0.20;;;1.00;99.90;;;;;;2114204;28;20590;-69
2022/01/09 04:08:20;;;;;;;0.10;0.10;;;1.00;99.90;;;;;;2114805;28;20171;-70
2022/01/09 04:09:29;;;;;;;0.47;0.13;;;1.00;99.90;;;;;;2114766;28;20202;-70
2022/01/09 04:10:32;;;;;;;0.25;0.20;;;1.00;99.90;;;;;;2114081;28;20179;-70
2022/01/09 04:11:37;;;;;;;0.08;0.08;;;0.90;99.90;;;;;;2114277;28;20229;-69
2022/01/09 04:12:48;;;;;;;1.65;0.10;;;0.90;99.90;;;;;;2114852;28;20163;-70
2022/01/09 04:13:49;;;;;;;0.00;0.00;;;0.90;99.90;;;;;;2114215;28;20721;-70
2022/01/09 04:14:50;;;;;;;0.00;0.00;;;0.90;99.90;;;;;;2106834;28;20253;-70
2022/01/09 04:15:50;;;;;;;0.20;0.03;;;0.90;99.90;;;;;;2114181;28;20193;-70
2022/01/09 04:16:51;;;;;;;0.20;0.10;;;0.90;99.90;;;;;;2114683;28;20641;-70
2022/01/09 04:17:53;;;;;;;0.63;0.20;;;0.90;99.90;;;;;;2114736;28;20606;-70
2022/01/09 04:18:53;;;;;;;0.00;0.00;;;0.90;99.90;;;;;;2114735;28;20179;-70
2022/01/09 04:19:54;;;;;;;0.83;0.20;;;0.90;99.90;;;;;;2114843;28;20175;-70
2022/01/09 04:20:55;;;;;;;0.20;0.20;;;0.90;99.90;;;;;;2114693;28;20187;-69
2022/01/09 04:21:55;;;;;;;0.00;0.00;;;0.90;99.90;;;;;;2114663;28;20201;-70
2022/01/09 04:22:57;;;;;;;0.13;0.10;;;0.80;99.90;;;;;;2114758;28;20549;-69
2022/01/09 04:23:58;;;;;;;0.10;0.10;;;0.80;99.90;;;;;;2114144;28;20265;-69
2022/01/09 04:24:59;;;;;;;0.03;0.03;;;0.80;99.90;;;;;;2113964;28;20548;-70
2022/01/09 04:25:59;;;;;;;0.10;0.10;;;0.80;99.90;;;;;;2112987;28;20179;-69
2022/01/09 04:27:00;;;;;;;0.37;0.10;;;0.80;99.90;;;;;;2106827;28;20179;-69
2022/01/09 04:28:01;;;;;;;0.10;0.10;;;0.80;99.90;;;;;;2105585;28;20179;-69
2022/01/09 04:29:02;;;;;;;0.10;0.10;;;0.80;99.90;;;;;;2105940;28;20167;-69
2022/01/09 04:30:04;;;;;;;0.10;0.10;;;0.80;99.90;;;;;;2106113;28;20586;-69
2022/01/09 04:31:05;;;;;;;0.08;0.00;;;0.80;99.90;;;;;;2106237;28;20223;-69
2022/01/09 04:32:06;;;;;;;0.00;0.00;;;0.80;99.90;;;;;;2108754;28;20248;-69
2022/01/09 04:33:09;;;;;;;0.00;0.00;;;0.80;99.90;;;;;;2106073;28;20216;-69
2022/01/09 04:34:09;;;;;;;0.03;0.03;;;0.90;99.90;;;;;;2106020;28;20187;-69
2022/01/09 04:35:11;;;;;;;0.10;0.10;;;0.80;99.90;;;;;;2106458;28;20179;-70
2022/01/09 04:36:12;;;;;;;0.63;0.40;;;0.80;99.90;;;;;;2106177;28;20179;-70
2022/01/09 04:37:12;;;;;;;0.20;0.20;;;0.80;99.90;;;;;;2106612;28;20175;-70
2022/01/09 04:38:13;;;;;;;0.37;0.10;;;0.80;99.90;;;;;;2107700;28;20668;-68
2022/01/09 04:39:14;;;;;;;0.00;0.00;;;0.80;99.90;;;;;;2107646;28;20200;-70
2022/01/09 04:40:17;;;;;;;0.00;0.00;;;0.80;99.90;;;;;;2107508;28;20187;-69
2022/01/09 04:41:18;;;;;;;0.10;0.10;;;0.80;99.90;;;;;;2106704;28;20190;-69
2022/01/09 04:42:22;;;;;;;0.07;0.07;;;0.90;99.90;;;;;;2106948;28;20579;-69
2022/01/09 04:43:23;;;;;;;0.00;0.00;;;0.80;99.90;;;;;;2106696;28;20179;-69
2022/01/09 04:44:24;;;;;;;0.07;0.07;;;0.90;99.90;;;;;;2106755;28;20197;-69
2022/01/09 04:45:27;;;;;;;0.10;0.10;;;0.90;99.90;;;;;;2106765;28;20285;-69
2022/01/09 04:46:38;;;;;;;0.10;0.10;;;0.90;99.90;;;;;;2107509;28;20202;-68
2022/01/09 04:47:41;;;;;;;0.00;0.00;;;0.80;99.90;;;;;;2107278;28;20160;-69
2022/01/09 04:48:44;;;;;;;0.10;0.10;;;0.80;99.90;;;;;;2107168;28;20183;-69
2022/01/09 04:49:47;;;;;;;1.13;0.10;;;0.80;99.90;;;;;;2107224;28;20213;-69
2022/01/09 04:50:50;;;;;;;0.10;0.10;;;0.80;99.90;;;;;;2107132;28;20184;-69
2022/01/09 04:51:51;;;;;;;0.00;0.00;;;0.90;99.90;;;;;;2107182;28;20171;-69
2022/01/09 04:52:59;;;;;;;0.00;0.00;;;0.90;99.90;;;;;;2106282;28;20213;-68
2022/01/09 04:54:00;;;;;;;0.00;0.00;;;0.90;99.90;;;;;;2105918;28;20664;-69
2022/01/09 04:55:01;;;;;;;0.10;0.10;;;0.90;99.90;;;;;;2105873;28;20204;-68
2022/01/09 04:56:02;;;;;;;0.10;0.10;;;0.90;99.90;;;;;;2106531;28;20182;-68
2022/01/09 04:57:03;;;;;;;0.00;0.00;;;0.80;99.90;;;;;;2106401;28;20180;-69
2022/01/09 04:58:04;;;;;;;0.10;0.10;;;0.80;99.90;;;;;;2106523;28;20179;-68
2022/01/09 04:59:05;;;;;;;0.00;0.00;;;0.90;99.90;;;;;;2106626;28;20195;-68
2022/01/09 05:00:07;;;;;;;0.10;0.10;;;0.90;99.90;;;;;;2106441;28;20182;-68
2022/01/09 05:01:08;;;;;;;0.10;0.10;;;0.90;99.90;;;;;;2106415;28;20753;-69
2022/01/09 05:02:08;;;;;;;0.00;0.00;;;1.00;99.90;;;;;;2106328;28;20204;-70
2022/01/09 05:03:12;;;;;;;0.10;0.10;;;0.90;99.90;;;;;;2106323;28;20262;-68
2022/01/09 05:04:12;;;;;;;0.10;0.10;;;1.00;99.90;;;;;;2105637;28;20187;-70
2022/01/09 05:05:13;;;;;;;0.10;0.10;;;1.00;99.90;;;;;;2105561;28;20298;-69
2022/01/09 05:06:14;;;;;;;0.10;0.10;;;0.90;99.90;;;;;;2106158;28;20171;-68
2022/01/09 05:07:15;;;;;;;0.00;0.00;;;0.90;99.90;;;;;;2106148;28;20179;-70
2022/01/09 05:08:16;;;;;;;0.10;0.10;;;0.80;99.90;;;;;;2106135;28;20673;-69
2022/01/09 05:09:16;;;;;;;0.00;0.00;;;0.90;99.90;;;;;;2106088;28;20198;-68
2022/01/09 05:10:17;;;;;;;0.00;0.00;;;0.90;99.90;;;;;;2105413;28;20179;-69
2022/01/09 05:11:18;;;;;;;0.10;0.10;;;0.90;99.90;;;;;;2097328;28;20180;-69
2022/01/09 05:12:18;;;;;;;0.10;0.10;;;0.80;99.90;;;;;;2105491;28;20278;-68
2022/01/09 05:13:19;;;;;;;0.10;0.10;;;0.80;99.90;;;;;;2106159;28;20167;-68
2022/01/09 05:14:20;;;;;;;0.00;0.00;;;0.80;99.90;;;;;;2106188;28;20175;-69
2022/01/09 05:15:21;;;;;;;0.10;0.10;;;0.80;99.90;;;;;;2106034;28;20186;-69
2022/01/09 05:16:22;;;;;;;0.10;0.10;;;0.80;99.90;;;;;;2106111;28;20214;-69
2022/01/09 05:17:23;;;;;;;0.33;0.20;;;0.90;99.90;;;;;;2105970;28;20549;-69
2022/01/09 05:18:23;;;;;;;0.10;0.10;;;0.90;99.90;;;;;;2105600;28;20254;-68
2022/01/09 05:19:28;;;;;;;0.20;0.20;;;0.80;99.90;;;;;;2096995;28;20198;-67
2022/01/09 05:20:29;;;;;;;0.10;0.10;;;0.90;99.90;;;;;;2105734;28;20167;-69
2022/01/09 05:21:30;;;;;;;0.10;0.10;;;0.90;99.90;;;;;;2106042;28;20642;-68
2022/01/09 05:22:31;;;;;;;0.00;0.00;;;0.90;99.90;;;;;;2106255;28;20722;-68
2022/01/09 05:23:31;;;;;;;0.10;0.10;;;0.90;99.90;;;;;;2106361;28;20217;-69
2022/01/09 05:24:32;;;;;;;0.93;0.10;;;0.80;99.90;;;;;;2106187;28;20171;-68
2022/01/09 05:25:33;;;;;;;0.00;0.00;;;0.80;99.90;;;;;;2106051;28;20577;-68
2022/01/09 05:26:33;;;;;;;0.10;0.10;;;0.80;99.90;;;;;;2106145;28;20187;-68